sensor_id;sensor_type;location;lat;lon;timestamp;pressure;altitude;pressure_sealevel;temperature;humidity
61324;BME280;47203;48.428;11.974;2023-03-13T00:01:10;96492.59;;;9.35;57.47
61324;BME280;47203;48.428;11.974;2023-03-13T00:03:15;96482.34;;;9.34;57.72
61324;BME280;47203;48.428;11.974;2023-03-13T00:05:22;96493.88;;;9.33;57.71
61324;BME280;47203;48.428;11.974;2023-03-13T00:07:27;96475.00;;;9.31;57.48
61324;BME280;47203;48.428;11.974;2023-03-13T00:09:32;96475.25;;;9.29;57.69
61324;BME280;47203;48.428;11.974;2023-03-13T00:11:37;96463.41;;;9.26;57.80
61324;BME280;47203;48.428;11.974;2023-03-13T00:13:42;96467.34;;;9.24;57.66
61324;BME280;47203;48.428;11.974;2023-03-13T00:15:47;96469.97;;;9.24;57.67
61324;BME280;47203;48.428;11.974;2023-03-13T00:17:52;96468.44;;;9.23;57.68
61324;BME280;47203;48.428;11.974;2023-03-13T00:19:57;96472.88;;;9.22;57.62
61324;BME280;47203;48.428;11.974;2023-03-13T00:22:04;96476.78;;;9.20;57.42
61324;BME280;47203;48.428;11.974;2023-03-13T00:24:10;96470.78;;;9.19;57.56
61324;BME280;47203;48.428;11.974;2023-03-13T00:26:17;96461.31;;;9.18;57.54
61324;BME280;47203;48.428;11.974;2023-03-13T00:28:22;96474.69;;;9.17;57.71
61324;BME280;47203;48.428;11.974;2023-03-13T00:30:27;96464.47;;;9.15;57.50
61324;BME280;47203;48.428;11.974;2023-03-13T00:32:32;96458.69;;;9.13;57.54
61324;BME280;47203;48.428;11.974;2023-03-13T00:34:37;96457.91;;;9.13;57.70
61324;BME280;47203;48.428;11.974;2023-03-13T00:36:42;96449.50;;;9.11;57.51
61324;BME280;47203;48.428;11.974;2023-03-13T00:38:49;96457.09;;;9.07;57.74
61324;BME280;47203;48.428;11.974;2023-03-13T00:41:01;96439.25;;;9.04;57.57
61324;BME280;47203;48.428;11.974;2023-03-13T00:43:06;96439.25;;;9.04;57.40
61324;BME280;47203;48.428;11.974;2023-03-13T00:45:11;96435.03;;;9.03;57.44
61324;BME280;47203;48.428;11.974;2023-03-13T00:47:15;96426.38;;;9.02;57.40
61324;BME280;47203;48.428;11.974;2023-03-13T00:49:20;96430.84;;;9.02;57.35
61324;BME280;47203;48.428;11.974;2023-03-13T00:51:27;96421.38;;;9.01;57.28
61324;BME280;47203;48.428;11.974;2023-03-13T00:53:32;96417.97;;;9.00;57.64
61324;BME280;47203;48.428;11.974;2023-03-13T00:55:50;96432.13;;;8.99;57.44
61324;BME280;47203;48.428;11.974;2023-03-13T00:57:55;96429.50;;;8.99;57.31
61324;BME280;47203;48.428;11.974;2023-03-13T00:59:59;96421.63;;;8.99;57.33
61324;BME280;47203;48.428;11.974;2023-03-13T01:02:06;96415.59;;;8.99;57.36
61324;BME280;47203;48.428;11.974;2023-03-13T01:04:11;96419.00;;;8.99;57.42
61324;BME280;47203;48.428;11.974;2023-03-13T01:06:19;96411.13;;;8.99;57.19
61324;BME280;47203;48.428;11.974;2023-03-13T01:08:24;96404.84;;;9.00;57.36
61324;BME280;47203;48.428;11.974;2023-03-13T01:10:29;96406.69;;;9.00;57.13
61324;BME280;47203;48.428;11.974;2023-03-13T01:12:37;96400.63;;;8.99;57.00
61324;BME280;47203;48.428;11.974;2023-03-13T01:14:42;96406.16;;;8.98;57.07
61324;BME280;47203;48.428;11.974;2023-03-13T01:16:48;96406.41;;;8.96;57.13
61324;BME280;47203;48.428;11.974;2023-03-13T01:18:54;96404.84;;;8.95;57.25
61324;BME280;47203;48.428;11.974;2023-03-13T01:20:59;96398.81;;;8.95;57.02
61324;BME280;47203;48.428;11.974;2023-03-13T01:23:04;96396.44;;;8.93;56.95
61324;BME280;47203;48.428;11.974;2023-03-13T01:25:09;96397.47;;;8.92;57.01
61324;BME280;47203;48.428;11.974;2023-03-13T01:27:14;96397.75;;;8.90;56.96
61324;BME280;47203;48.428;11.974;2023-03-13T01:29:22;96396.19;;;8.89;56.80
61324;BME280;47203;48.428;11.974;2023-03-13T01:31:28;96389.34;;;8.88;56.84
61324;BME280;47203;48.428;11.974;2023-03-13T01:33:34;96382.50;;;8.87;56.96
61324;BME280;47203;48.428;11.974;2023-03-13T01:35:39;96384.88;;;8.84;57.03
61324;BME280;47203;48.428;11.974;2023-03-13T01:37:43;96379.63;;;8.84;56.82
61324;BME280;47203;48.428;11.974;2023-03-13T01:39:48;96370.97;;;8.83;56.87
61324;BME280;47203;48.428;11.974;2023-03-13T01:41:53;96364.94;;;8.83;57.02
61324;BME280;47203;48.428;11.974;2023-03-13T01:43:58;96367.81;;;8.81;56.96
61324;BME280;47203;48.428;11.974;2023-03-13T01:46:16;96370.19;;;8.78;56.86
61324;BME280;47203;48.428;11.974;2023-03-13T01:48:36;96371.22;;;8.77;56.92
61324;BME280;47203;48.428;11.974;2023-03-13T01:50:41;96368.34;;;8.78;56.73
61324;BME280;47203;48.428;11.974;2023-03-13T01:52:54;96369.66;;;8.76;57.07
61324;BME280;47203;48.428;11.974;2023-03-13T01:55:06;96369.13;;;8.73;56.73
61324;BME280;47203;48.428;11.974;2023-03-13T01:57:17;96364.41;;;8.70;56.82
61324;BME280;47203;48.428;11.974;2023-03-13T01:59:25;96371.47;;;8.70;56.68
61324;BME280;47203;48.428;11.974;2023-03-13T02:01:35;96360.19;;;8.69;56.65
61324;BME280;47203;48.428;11.974;2023-03-13T02:03:41;96352.59;;;8.68;56.87
61324;BME280;47203;48.428;11.974;2023-03-13T02:05:47;96348.13;;;8.68;56.85
61324;BME280;47203;48.428;11.974;2023-03-13T02:07:57;96342.34;;;8.66;56.58
61324;BME280;47203;48.428;11.974;2023-03-13T02:10:05;96338.94;;;8.66;56.56
61324;BME280;47203;48.428;11.974;2023-03-13T02:12:13;96335.53;;;8.65;56.80
61324;BME280;47203;48.428;11.974;2023-03-13T02:14:22;96345.75;;;8.67;56.68
61324;BME280;47203;48.428;11.974;2023-03-13T02:16:31;96345.25;;;8.65;56.54
61324;BME280;47203;48.428;11.974;2023-03-13T02:18:41;96343.41;;;8.65;56.46
61324;BME280;47203;48.428;11.974;2023-03-13T02:20:50;96346.28;;;8.64;56.63
61324;BME280;47203;48.428;11.974;2023-03-13T02:23:00;96349.16;;;8.62;56.65
61324;BME280;47203;48.428;11.974;2023-03-13T02:25:10;96342.59;;;8.60;56.62
61324;BME280;47203;48.428;11.974;2023-03-13T02:27:20;96341.53;;;8.55;56.35
61324;BME280;47203;48.428;11.974;2023-03-13T02:29:25;96338.41;;;8.53;56.74
61324;BME280;47203;48.428;11.974;2023-03-13T02:31:31;96346.53;;;8.52;56.57
61324;BME280;47203;48.428;11.974;2023-03-13T02:33:39;96341.81;;;8.49;56.63
61324;BME280;47203;48.428;11.974;2023-03-13T02:35:48;96338.13;;;8.45;56.71
61324;BME280;47203;48.428;11.974;2023-03-13T02:37:55;96339.66;;;8.41;56.57
61324;BME280;47203;48.428;11.974;2023-03-13T02:40:04;96330.72;;;8.36;56.77
61324;BME280;47203;48.428;11.974;2023-03-13T02:42:11;96346.97;;;8.33;56.59
61324;BME280;47203;48.428;11.974;2023-03-13T02:44:20;96338.84;;;8.30;56.93
61324;BME280;47203;48.428;11.974;2023-03-13T02:46:25;96342.50;;;8.29;56.83
61324;BME280;47203;48.428;11.974;2023-03-13T02:48:33;96336.19;;;8.25;56.74
61324;BME280;47203;48.428;11.974;2023-03-13T02:50:38;96341.69;;;8.23;56.85
61324;BME280;47203;48.428;11.974;2023-03-13T02:52:44;96345.88;;;8.19;56.86
61324;BME280;47203;48.428;11.974;2023-03-13T02:54:52;96342.47;;;8.18;56.60
61324;BME280;47203;48.428;11.974;2023-03-13T02:57:01;96350.59;;;8.17;56.63
61324;BME280;47203;48.428;11.974;2023-03-13T02:59:07;96349.00;;;8.16;56.63
61324;BME280;47203;48.428;11.974;2023-03-13T03:01:18;96348.22;;;8.10;56.89
61324;BME280;47203;48.428;11.974;2023-03-13T03:03:23;96343.47;;;8.07;56.95
61324;BME280;47203;48.428;11.974;2023-03-13T03:05:27;96344.25;;;8.02;57.00
61324;BME280;47203;48.428;11.974;2023-03-13T03:07:32;96345.03;;;7.98;56.78
61324;BME280;47203;48.428;11.974;2023-03-13T03:09:38;96345.81;;;7.93;57.08
61324;BME280;47203;48.428;11.974;2023-03-13T03:11:47;96346.06;;;7.92;56.91
61324;BME280;47203;48.428;11.974;2023-03-13T03:13:53;96346.56;;;7.89;56.89
61324;BME280;47203;48.428;11.974;2023-03-13T03:16:04;96352.59;;;7.89;57.06
61324;BME280;47203;48.428;11.974;2023-03-13T03:18:12;96348.38;;;7.88;57.12
61324;BME280;47203;48.428;11.974;2023-03-13T03:20:17;96350.75;;;7.90;57.17
61324;BME280;47203;48.428;11.974;2023-03-13T03:22:22;96349.72;;;7.91;57.09
61324;BME280;47203;48.428;11.974;2023-03-13T03:24:27;96352.84;;;7.93;56.77
61324;BME280;47203;48.428;11.974;2023-03-13T03:26:32;96346.56;;;7.94;56.97
61324;BME280;47203;48.428;11.974;2023-03-13T03:28:40;96349.97;;;7.94;57.02
61324;BME280;47203;48.428;11.974;2023-03-13T03:30:47;96356.81;;;7.95;57.11
61324;BME280;47203;48.428;11.974;2023-03-13T03:32:54;96353.16;;;7.96;57.09
61324;BME280;47203;48.428;11.974;2023-03-13T03:35:02;96354.19;;;7.95;57.17
61324;BME280;47203;48.428;11.974;2023-03-13T03:37:07;96360.22;;;7.96;57.08
61324;BME280;47203;48.428;11.974;2023-03-13T03:39:13;96358.66;;;7.95;57.10
61324;BME280;47203;48.428;11.974;2023-03-13T03:41:19;96353.41;;;7.95;56.89
61324;BME280;47203;48.428;11.974;2023-03-13T03:43:24;96355.78;;;7.96;56.85
61324;BME280;47203;48.428;11.974;2023-03-13T03:45:29;96352.84;;;7.93;57.12
61324;BME280;47203;48.428;11.974;2023-03-13T03:47:35;96351.28;;;7.92;56.98
61324;BME280;47203;48.428;11.974;2023-03-13T03:49:41;96356.28;;;7.93;57.18
61324;BME280;47203;48.428;11.974;2023-03-13T03:51:49;96354.44;;;7.94;57.11
61324;BME280;47203;48.428;11.974;2023-03-13T03:54:00;96345.81;;;7.93;57.16
61324;BME280;47203;48.428;11.974;2023-03-13T03:56:07;96340.56;;;7.93;57.07
61324;BME280;47203;48.428;11.974;2023-03-13T03:58:18;96336.88;;;7.94;57.02
61324;BME280;47203;48.428;11.974;2023-03-13T04:00:33;96335.31;;;7.93;57.29
61324;BME280;47203;48.428;11.974;2023-03-13T04:02:38;96337.41;;;7.96;57.36
61324;BME280;47203;48.428;11.974;2023-03-13T04:04:43;96332.97;;;7.97;57.36
61324;BME280;47203;48.428;11.974;2023-03-13T04:06:56;96324.31;;;7.96;57.18
61324;BME280;47203;48.428;11.974;2023-03-13T04:09:03;96324.06;;;7.98;57.19
61324;BME280;47203;48.428;11.974;2023-03-13T04:11:10;96316.97;;;7.98;57.10
61324;BME280;47203;48.428;11.974;2023-03-13T04:13:20;96316.19;;;7.98;57.48
61324;BME280;47203;48.428;11.974;2023-03-13T04:15:25;96311.72;;;7.98;57.39
61324;BME280;47203;48.428;11.974;2023-03-13T04:17:31;96301.50;;;7.97;57.43
61324;BME280;47203;48.428;11.974;2023-03-13T04:19:37;96308.34;;;7.98;57.48
61324;BME280;47203;48.428;11.974;2023-03-13T04:21:42;96307.56;;;7.97;57.53
61324;BME280;47203;48.428;11.974;2023-03-13T04:23:53;96306.75;;;7.97;57.40
61324;BME280;47203;48.428;11.974;2023-03-13T04:25:58;96300.47;;;7.98;57.39
61324;BME280;47203;48.428;11.974;2023-03-13T04:28:04;96278.47;;;7.99;57.62
61324;BME280;47203;48.428;11.974;2023-03-13T04:30:15;96284.50;;;7.99;57.51
61324;BME280;47203;48.428;11.974;2023-03-13T04:32:39;96293.38;;;7.98;57.53
61324;BME280;47203;48.428;11.974;2023-03-13T04:35:10;96282.38;;;7.96;57.62
61324;BME280;47203;48.428;11.974;2023-03-13T04:37:47;96279.00;;;7.96;57.50
61324;BME280;47203;48.428;11.974;2023-03-13T04:40:23;96257.22;;;7.95;57.29
61324;BME280;47203;48.428;11.974;2023-03-13T04:42:44;96261.94;;;7.98;57.41
61324;BME280;47203;48.428;11.974;2023-03-13T04:45:00;96261.16;;;7.98;57.57
61324;BME280;47203;48.428;11.974;2023-03-13T04:47:15;96272.97;;;8.00;57.28
61324;BME280;47203;48.428;11.974;2023-03-13T04:49:40;96258.03;;;8.01;57.51
61324;BME280;47203;48.428;11.974;2023-03-13T04:52:08;96254.63;;;8.00;57.20
61324;BME280;47203;48.428;11.974;2023-03-13T04:54:46;96246.50;;;8.02;57.33
61324;BME280;47203;48.428;11.974;2023-03-13T04:57:13;96244.91;;;8.01;57.40
61324;BME280;47203;48.428;11.974;2023-03-13T04:59:33;96245.44;;;8.03;57.19
61324;BME280;47203;48.428;11.974;2023-03-13T05:01:59;96242.81;;;8.03;57.51
61324;BME280;47203;48.428;11.974;2023-03-13T05:04:21;96227.63;;;8.05;57.29
61324;BME280;47203;48.428;11.974;2023-03-13T05:06:29;96230.00;;;8.07;57.17
61324;BME280;47203;48.428;11.974;2023-03-13T05:08:52;96231.03;;;8.06;57.44
61324;BME280;47203;48.428;11.974;2023-03-13T05:11:17;96236.81;;;8.08;57.33
61324;BME280;47203;48.428;11.974;2023-03-13T05:13:42;96232.34;;;8.08;57.31
61324;BME280;47203;48.428;11.974;2023-03-13T05:16:04;96219.00;;;8.10;57.19
61324;BME280;47203;48.428;11.974;2023-03-13T05:18:27;96219.28;;;8.13;57.01
61324;BME280;47203;48.428;11.974;2023-03-13T05:20:51;96218.19;;;8.14;57.02
61324;BME280;47203;48.428;11.974;2023-03-13T05:23:07;96225.03;;;8.15;57.22
61324;BME280;47203;48.428;11.974;2023-03-13T05:25:31;96234.22;;;8.18;57.29
61324;BME280;47203;48.428;11.974;2023-03-13T05:27:48;96227.91;;;8.19;56.99
61324;BME280;47203;48.428;11.974;2023-03-13T05:30:21;96229.22;;;8.21;57.18
61324;BME280;47203;48.428;11.974;2023-03-13T05:32:41;96227.41;;;8.27;56.85
61324;BME280;47203;48.428;11.974;2023-03-13T05:34:57;96226.88;;;8.30;56.95
61324;BME280;47203;48.428;11.974;2023-03-13T05:37:22;96206.19;;;8.34;57.13
61324;BME280;47203;48.428;11.974;2023-03-13T05:39:46;96218.50;;;8.38;57.03
61324;BME280;47203;48.428;11.974;2023-03-13T05:42:03;96206.72;;;8.41;57.04
61324;BME280;47203;48.428;11.974;2023-03-13T05:44:28;96206.44;;;8.43;57.01
61324;BME280;47203;48.428;11.974;2023-03-13T05:46:54;96201.19;;;8.43;56.93
61324;BME280;47203;48.428;11.974;2023-03-13T05:49:04;96188.34;;;8.46;56.86
61324;BME280;47203;48.428;11.974;2023-03-13T05:51:19;96186.78;;;8.50;56.63
61324;BME280;47203;48.428;11.974;2023-03-13T05:53:27;96188.88;;;8.53;56.74
61324;BME280;47203;48.428;11.974;2023-03-13T05:55:41;96188.88;;;8.53;56.67
61324;BME280;47203;48.428;11.974;2023-03-13T05:58:05;96186.78;;;8.55;56.80
61324;BME280;47203;48.428;11.974;2023-03-13T06:00:27;96185.72;;;8.56;56.75
61324;BME280;47203;48.428;11.974;2023-03-13T06:02:55;96187.56;;;8.56;56.68
61324;BME280;47203;48.428;11.974;2023-03-13T06:05:07;96181.03;;;8.59;57.02
61324;BME280;47203;48.428;11.974;2023-03-13T06:07:13;96157.16;;;8.60;56.71
61324;BME280;47203;48.428;11.974;2023-03-13T06:09:18;96144.78;;;8.66;56.77
61324;BME280;47203;48.428;11.974;2023-03-13T06:11:25;96193.06;;;8.70;56.59
61324;BME280;47203;48.428;11.974;2023-03-13T06:13:30;96189.38;;;8.71;56.76
61324;BME280;47203;48.428;11.974;2023-03-13T06:15:42;96178.63;;;8.72;56.71
61324;BME280;47203;48.428;11.974;2023-03-13T06:17:51;96161.31;;;8.77;56.83
61324;BME280;47203;48.428;11.974;2023-03-13T06:19:59;96176.25;;;8.81;56.81
61324;BME280;47203;48.428;11.974;2023-03-13T06:22:05;96169.69;;;8.84;56.67
61324;BME280;47203;48.428;11.974;2023-03-13T06:24:10;96167.84;;;8.89;56.42
61324;BME280;47203;48.428;11.974;2023-03-13T06:26:15;96154.47;;;8.91;56.58
61324;BME280;47203;48.428;11.974;2023-03-13T06:28:20;96164.66;;;8.98;56.35
61324;BME280;47203;48.428;11.974;2023-03-13T06:30:25;96169.13;;;9.02;56.33
61324;BME280;47203;48.428;11.974;2023-03-13T06:32:30;96164.13;;;9.06;56.51
61324;BME280;47203;48.428;11.974;2023-03-13T06:34:35;96173.31;;;9.08;56.33
61324;BME280;47203;48.428;11.974;2023-03-13T06:36:43;96173.81;;;9.11;56.30
61324;BME280;47203;48.428;11.974;2023-03-13T06:38:48;96168.28;;;9.12;56.50
61324;BME280;47203;48.428;11.974;2023-03-13T06:40:53;96159.88;;;9.15;56.56
61324;BME280;47203;48.428;11.974;2023-03-13T06:42:58;96152.25;;;9.19;56.38
61324;BME280;47203;48.428;11.974;2023-03-13T06:45:03;96157.47;;;9.24;56.19
61324;BME280;47203;48.428;11.974;2023-03-13T06:47:08;96138.56;;;9.27;56.04
61324;BME280;47203;48.428;11.974;2023-03-13T06:49:16;96145.41;;;9.28;56.12
61324;BME280;47203;48.428;11.974;2023-03-13T06:51:21;96152.47;;;9.33;56.15
61324;BME280;47203;48.428;11.974;2023-03-13T06:53:29;96147.75;;;9.35;56.25
61324;BME280;47203;48.428;11.974;2023-03-13T06:55:34;96153.22;;;9.38;55.88
61324;BME280;47203;48.428;11.974;2023-03-13T06:57:39;96139.31;;;9.38;56.12
61324;BME280;47203;48.428;11.974;2023-03-13T06:59:44;96142.19;;;9.41;56.10
61324;BME280;47203;48.428;11.974;2023-03-13T07:01:48;96135.88;;;9.42;55.89
61324;BME280;47203;48.428;11.974;2023-03-13T07:03:53;96144.78;;;9.47;56.03
61324;BME280;47203;48.428;11.974;2023-03-13T07:05:59;96150.53;;;9.49;55.92
61324;BME280;47203;48.428;11.974;2023-03-13T07:08:04;96145.81;;;9.51;55.75
61324;BME280;47203;48.428;11.974;2023-03-13T07:10:12;96143.97;;;9.51;55.95
61324;BME280;47203;48.428;11.974;2023-03-13T07:12:17;96137.13;;;9.55;56.00
61324;BME280;47203;48.428;11.974;2023-03-13T07:14:21;96137.34;;;9.59;55.87
61324;BME280;47203;48.428;11.974;2023-03-13T07:16:26;96145.22;;;9.64;55.65
61324;BME280;47203;48.428;11.974;2023-03-13T07:18:32;96140.19;;;9.68;55.83
61324;BME280;47203;48.428;11.974;2023-03-13T07:20:37;96133.34;;;9.72;55.59
61324;BME280;47203;48.428;11.974;2023-03-13T07:22:42;96129.91;;;9.76;55.55
61324;BME280;47203;48.428;11.974;2023-03-13T07:24:47;96133.81;;;9.79;55.73
61324;BME280;47203;48.428;11.974;2023-03-13T07:26:54;96137.50;;;9.83;55.49
61324;BME280;47203;48.428;11.974;2023-03-13T07:29:08;96136.44;;;9.84;55.70
61324;BME280;47203;48.428;11.974;2023-03-13T07:31:15;96139.28;;;9.88;55.35
61324;BME280;47203;48.428;11.974;2023-03-13T07:33:20;96137.16;;;9.90;55.67
61324;BME280;47203;48.428;11.974;2023-03-13T07:35:25;96135.56;;;9.94;55.59
61324;BME280;47203;48.428;11.974;2023-03-13T07:37:29;96133.97;;;9.98;55.34
61324;BME280;47203;48.428;11.974;2023-03-13T07:39:34;96142.09;;;10.02;55.15
61324;BME280;47203;48.428;11.974;2023-03-13T07:41:39;96127.38;;;10.01;55.47
61324;BME280;47203;48.428;11.974;2023-03-13T07:43:52;96132.31;;;10.07;55.13
61324;BME280;47203;48.428;11.974;2023-03-13T07:46:00;96148.34;;;10.11;55.08
61324;BME280;47203;48.428;11.974;2023-03-13T07:48:05;96140.16;;;10.12;55.21
61324;BME280;47203;48.428;11.974;2023-03-13T07:50:11;96138.84;;;10.15;55.23
61324;BME280;47203;48.428;11.974;2023-03-13T07:52:16;96153.25;;;10.18;55.34
61324;BME280;47203;48.428;11.974;2023-03-13T07:54:21;96148.53;;;10.20;55.21
61324;BME280;47203;48.428;11.974;2023-03-13T07:56:26;96141.13;;;10.22;55.18
61324;BME280;47203;48.428;11.974;2023-03-13T07:58:32;96140.84;;;10.23;55.17
61324;BME280;47203;48.428;11.974;2023-03-13T08:00:40;96140.59;;;10.25;55.04
61324;BME280;47203;48.428;11.974;2023-03-13T08:02:45;96144.50;;;10.27;55.16
61324;BME280;47203;48.428;11.974;2023-03-13T08:04:51;96132.94;;;10.28;55.24
61324;BME280;47203;48.428;11.974;2023-03-13T08:06:58;96128.19;;;10.30;55.10
61324;BME280;47203;48.428;11.974;2023-03-13T08:09:06;96122.91;;;10.30;55.37
61324;BME280;47203;48.428;11.974;2023-03-13T08:11:13;96119.22;;;10.31;55.20
61324;BME280;47203;48.428;11.974;2023-03-13T08:13:19;96125.53;;;10.30;55.38
61324;BME280;47203;48.428;11.974;2023-03-13T08:15:24;96123.19;;;10.34;55.52
61324;BME280;47203;48.428;11.974;2023-03-13T08:17:32;96123.69;;;10.36;55.55
61324;BME280;47203;48.428;11.974;2023-03-13T08:19:36;96125.75;;;10.39;55.44
61324;BME280;47203;48.428;11.974;2023-03-13T08:21:42;96119.44;;;10.40;55.46
61324;BME280;47203;48.428;11.974;2023-03-13T08:23:47;96125.22;;;10.42;55.50
61324;BME280;47203;48.428;11.974;2023-03-13T08:25:52;96121.53;;;10.43;55.42
61324;BME280;47203;48.428;11.974;2023-03-13T08:27:57;96123.59;;;10.46;55.22
61324;BME280;47203;48.428;11.974;2023-03-13T08:30:04;96119.13;;;10.47;55.23
61324;BME280;47203;48.428;11.974;2023-03-13T08:32:09;96120.66;;;10.53;55.49
61324;BME280;47203;48.428;11.974;2023-03-13T08:34:17;96130.63;;;10.56;55.63
61324;BME280;47203;48.428;11.974;2023-03-13T08:36:24;96131.13;;;10.58;55.33
61324;BME280;47203;48.428;11.974;2023-03-13T08:38:29;96129.78;;;10.61;55.54
61324;BME280;47203;48.428;11.974;2023-03-13T08:40:34;96125.00;;;10.63;55.42
61324;BME280;47203;48.428;11.974;2023-03-13T08:42:39;96130.25;;;10.68;55.39
61324;BME280;47203;48.428;11.974;2023-03-13T08:44:44;96128.91;;;10.71;55.45
61324;BME280;47203;48.428;11.974;2023-03-13T08:46:49;96128.34;;;10.74;55.50
61324;BME280;47203;48.428;11.974;2023-03-13T08:48:54;96119.88;;;10.77;55.46
61324;BME280;47203;48.428;11.974;2023-03-13T08:51:06;96134.06;;;10.81;55.58
61324;BME280;47203;48.428;11.974;2023-03-13T08:53:11;96135.34;;;10.83;55.32
61324;BME280;47203;48.428;11.974;2023-03-13T08:55:16;96127.38;;;10.89;55.52
61324;BME280;47203;48.428;11.974;2023-03-13T08:57:21;96122.84;;;10.94;55.46
61324;BME280;47203;48.428;11.974;2023-03-13T08:59:26;96130.72;;;10.99;55.01
61324;BME280;47203;48.428;11.974;2023-03-13T09:01:33;96130.16;;;11.03;55.15
61324;BME280;47203;48.428;11.974;2023-03-13T09:03:39;96124.03;;;11.07;55.15
61324;BME280;47203;48.428;11.974;2023-03-13T09:05:44;96123.19;;;11.12;55.40
61324;BME280;47203;48.428;11.974;2023-03-13T09:07:59;96123.00;;;11.27;55.55
61324;BME280;47203;48.428;11.974;2023-03-13T09:10:06;96103.22;;;11.49;55.00
61324;BME280;47203;48.428;11.974;2023-03-13T09:12:11;96099.03;;;11.67;54.78
61324;BME280;47203;48.428;11.974;2023-03-13T09:14:31;96105.56;;;11.88;54.88
61324;BME280;47203;48.428;11.974;2023-03-13T09:16:37;96107.41;;;12.07;54.49
61324;BME280;47203;48.428;11.974;2023-03-13T09:18:43;96109.81;;;12.22;54.50
61324;BME280;47203;48.428;11.974;2023-03-13T09:20:48;96103.28;;;12.34;54.52
61324;BME280;47203;48.428;11.974;2023-03-13T09:22:53;96091.47;;;12.45;54.42
61324;BME280;47203;48.428;11.974;2023-03-13T09:25:01;96078.09;;;12.55;54.67
61324;BME280;47203;48.428;11.974;2023-03-13T09:27:06;96086.31;;;12.68;54.33
61324;BME280;47203;48.428;11.974;2023-03-13T09:29:10;96086.59;;;12.80;54.31
61324;BME280;47203;48.428;11.974;2023-03-13T09:31:16;96085.34;;;12.91;54.47
61324;BME280;47203;48.428;11.974;2023-03-13T09:33:22;96092.59;;;13.00;54.06
61324;BME280;47203;48.428;11.974;2023-03-13T09:35:27;96089.22;;;13.08;54.02
61324;BME280;47203;48.428;11.974;2023-03-13T09:37:32;96087.78;;;13.16;54.44
61324;BME280;47203;48.428;11.974;2023-03-13T09:39:37;96088.34;;;13.26;54.43
61324;BME280;47203;48.428;11.974;2023-03-13T09:41:52;96078.16;;;13.34;54.50
61324;BME280;47203;48.428;11.974;2023-03-13T09:44:02;96081.97;;;13.41;54.06
61324;BME280;47203;48.428;11.974;2023-03-13T09:46:12;96088.91;;;13.51;54.67
61324;BME280;47203;48.428;11.974;2023-03-13T09:48:27;96081.22;;;13.64;54.20
61324;BME280;47203;48.428;11.974;2023-03-13T09:50:34;96079.13;;;13.74;54.37
61324;BME280;47203;48.428;11.974;2023-03-13T09:52:40;96076.88;;;13.82;53.77
61324;BME280;47203;48.428;11.974;2023-03-13T09:54:48;96064.31;;;13.87;53.94
61324;BME280;47203;48.428;11.974;2023-03-13T09:57:02;96067.31;;;13.94;53.58
61324;BME280;47203;48.428;11.974;2023-03-13T09:59:12;96057.00;;;13.93;53.93
61324;BME280;47203;48.428;11.974;2023-03-13T10:01:23;96049.91;;;14.02;53.66
61324;BME280;47203;48.428;11.974;2023-03-13T10:03:34;96053.06;;;14.13;53.90
61324;BME280;47203;48.428;11.974;2023-03-13T10:05:45;96051.44;;;14.26;54.07
61324;BME280;47203;48.428;11.974;2023-03-13T10:07:55;96046.19;;;14.35;53.64
61324;BME280;47203;48.428;11.974;2023-03-13T10:10:05;96032.69;;;14.45;53.73
61324;BME280;47203;48.428;11.974;2023-03-13T10:12:18;96038.47;;;14.56;53.77
61324;BME280;47203;48.428;11.974;2023-03-13T10:14:28;96043.06;;;14.64;52.95
61324;BME280;47203;48.428;11.974;2023-03-13T10:16:38;96036.41;;;14.75;52.82
61324;BME280;47203;48.428;11.974;2023-03-13T10:18:47;96036.13;;;14.86;52.49
61324;BME280;47203;48.428;11.974;2023-03-13T10:20:57;96039.88;;;14.93;52.29
61324;BME280;47203;48.428;11.974;2023-03-13T10:23:05;96033.97;;;14.96;52.42
61324;BME280;47203;48.428;11.974;2023-03-13T10:25:23;96029.28;;;15.02;52.46
61324;BME280;47203;48.428;11.974;2023-03-13T10:27:42;96038.50;;;15.13;52.34
61324;BME280;47203;48.428;11.974;2023-03-13T10:29:47;96025.72;;;15.24;52.00
61324;BME280;47203;48.428;11.974;2023-03-13T10:31:56;96026.53;;;15.33;52.18
61324;BME280;47203;48.428;11.974;2023-03-13T10:34:05;96012.97;;;15.44;52.29
61324;BME280;47203;48.428;11.974;2023-03-13T10:36:12;96031.84;;;15.51;51.78
61324;BME280;47203;48.428;11.974;2023-03-13T10:38:19;96020.91;;;15.52;51.66
61324;BME280;47203;48.428;11.974;2023-03-13T10:40:27;96012.34;;;15.56;51.47
61324;BME280;47203;48.428;11.974;2023-03-13T10:42:37;96010.44;;;15.56;51.55
61324;BME280;47203;48.428;11.974;2023-03-13T10:44:46;96018.25;;;15.61;51.42
61324;BME280;47203;48.428;11.974;2023-03-13T10:46:51;96012.16;;;15.69;51.42
61324;BME280;47203;48.428;11.974;2023-03-13T10:48:59;96007.47;;;15.75;51.50
61324;BME280;47203;48.428;11.974;2023-03-13T10:51:20;96008.59;;;15.83;51.18
61324;BME280;47203;48.428;11.974;2023-03-13T10:53:35;95995.59;;;15.90;51.42
61324;BME280;47203;48.428;11.974;2023-03-13T10:55:42;95990.28;;;15.99;51.11
61324;BME280;47203;48.428;11.974;2023-03-13T10:57:56;95999.00;;;16.08;50.48
61324;BME280;47203;48.428;11.974;2023-03-13T11:00:21;96000.38;;;16.14;50.25
61324;BME280;47203;48.428;11.974;2023-03-13T11:02:32;95983.06;;;16.17;50.39
61324;BME280;47203;48.428;11.974;2023-03-13T11:04:37;95988.97;;;16.22;50.45
61324;BME280;47203;48.428;11.974;2023-03-13T11:06:49;95997.69;;;16.23;50.77
61324;BME280;47203;48.428;11.974;2023-03-13T11:09:02;95988.97;;;16.22;50.98
61324;BME280;47203;48.428;11.974;2023-03-13T11:11:17;95990.50;;;16.23;51.35
61324;BME280;47203;48.428;11.974;2023-03-13T11:13:34;95987.53;;;16.25;50.96
61324;BME280;47203;48.428;11.974;2023-03-13T11:15:44;95977.06;;;16.29;51.04
61324;BME280;47203;48.428;11.974;2023-03-13T11:17:55;95986.41;;;16.35;50.83
61324;BME280;47203;48.428;11.974;2023-03-13T11:20:20;95966.84;;;16.39;51.14
61324;BME280;47203;48.428;11.974;2023-03-13T11:22:33;95971.41;;;16.39;51.11